LPMAGCLA

Guest
Details From LPMA - Madeira
To GCLA - La Palma
Flight Number -
Tags generated
Created
Modified
Stats Distance 281 nm / 520 km
Max Altitude 27,900 ft / 8,504 m
Waypoints 4
Social Downloads 0
Likes 0
Share VATSIM

Download

Looking for another format? Having issues loading an existing format? Contact us
Advertisement - Login to hide

Notes

Basic altitude profile: - Ascent Rate: 2500ft/min - Ascent Speed: 250kts - Cruise Altitude: 35000ft - Cruise Speed: 420kts - Descent Rate: 1500ft/min - Descent Speed: 250kts Options: - Use NATs: yes - Use PACOTS: yes - Use low airways: yes - Use high airways: yes

Route

LPMA ORTIS UN728 BRICK GCLA

ID Type Via Altitude Latitude Longitude Leg Dist Tot Dist Heading (true) Name
O LPMA APT - 0 ft / 0 m 32.69770˚ -16.77445˚ - 0 nm - Madeira
ORTIS FIX - 27,900 ft / 8,504 m 31.40696˚ -16.55691˚ 78 nm 78 nm 172° / 172° -
BRICK FIX UN728 (AWY-HI) 23,500 ft / 7,163 m 29.59137˚ -16.37289˚ 109 nm 187 nm 175° / 175° -
O GCLA APT - 0 ft / 0 m 28.62648˚ -17.75561˚ 92 nm 280 nm 232° / 231° La Palma

Altitude Profile

Advertisement - Login to hide

Weather


0- 5 10 15 20 25 30 35+ Temperature / ° C

Clouds and Precipitation
Forecast for 2017-12-18 12:00 UTC. Updated 2 hours ago

Ground ~20,000 ft ~40,000 ft Winds

LPMA

Details ICAO LPMA (FNC)
Name Madeira
Region Portugal
Timezone Atlantic/Madeira (UTC+0.0)
Stats Elevation 192 ft / 59 m (AMSL)
Location 32.697704° -16.774449°
Runways 1
Magnetic Variation 4.980° W

METAR

LPMA 181100Z 03011KT 360V060 9999 BKN016 SCT030 17/09 Q1030

Decode

TAF

TAF LPMA 180500Z 1806/1906 02013KT 9999 SCT015 SCT030 TEMPO 1806/1812 BKN015

Decode

Departure Runways

ID Width Length Bearing (true) Bearing (mag) Surface Threshold Offset Overrun Length
05 141 ft / 43 m 8,683 ft / 2,647 m 42.98° 47.96° Asphalt 472 ft / 144 m 0 ft / 0 m
23 141 ft / 43 m 8,683 ft / 2,647 m 222.99° 227.97° Asphalt 466 ft / 142 m 0 ft / 0 m

GCLA

Details ICAO GCLA (SPC)
Name La Palma
Region Canary Islands
Timezone Atlantic/Canary (UTC+0.0)
Stats Elevation 107 ft / 33 m (AMSL)
Location 28.626480° -17.755613°
Runways 1
Magnetic Variation 5.521° W

METAR

GCLA 181100Z 02008KT 350V100 9999 BKN040 20/10 Q1027

Decode

TAF

TAF AMD TAF AMD GCLA 180850Z 1809/1909 02015KT 9999 BKN045 TX22/1814Z TN17/1906Z BECMG 1819/1820 32005KT BECMG 1907/1909 03015KT TEMPO 1809/1812 VRB05KT

Decode

Destination Runways

ID Width Length Bearing (true) Bearing (mag) Surface Threshold Offset Overrun Length
01 148 ft / 45 m 7,240 ft / 2,207 m 359.02° 4.54° Asphalt 0 ft / 0 m 279 ft / 85 m
19 148 ft / 45 m 7,240 ft / 2,207 m 179.02° 184.54° Asphalt 0 ft / 0 m 236 ft / 72 m

Popular Alternatives